• Join FlightAware (Why Join?)
  • Login
  • US Flag 
12:42AM EST


 

Airport Tracker/Info


-or-


 

Live Flight TrackerFlight Track Log ✈ DAL3678 ✈ 10-May-2013 ✈ KPHL - KDTW

Flight Track Log - Related Links

Times and Time Zones

All times are in EDT time to prevent confusion due to time zone crossing. See the DAL3678 flight status page for this flight to view local times or setup timezone preferences in your user account.

Time Position Orientation Groundspeed Altitude Reporting Facility
EDT Latitude Longitude Course Direction KTS MPH feet Rate Location/Type
07:13PM 39.8667 -75.2833 270° West 176 203 800  Level Philadelphia TRACON
07:16PM 39.8511 -75.4678 264° West 236 272 5,300 2,040 Climbing New York Center
07:17PM 39.9124 -75.6921 258° West  Level FlightAware Approximate
07:17PM 39.8561 -75.5544 274° West 255 293 7,700  Level New York Center
07:18PM 39.9000 -75.8103 270° West  Level FlightAware Approximate
07:18PM 39.8642 -75.6606 276° West 261 300 10,200  Level New York Center
07:19PM 39.9000 -75.9301 270° West  Level FlightAware Approximate
07:19PM 39.8728 -75.7558 277° West 289 333 11,200  Level New York Center
07:20PM 39.8836 -75.8892 276° West 331 381 12,300 1,380 Climbing New York Center
07:21PM 39.8953 -76.0039 278° West 348 400 14,100 1,740 Climbing New York Center
07:22PM 39.9058 -76.1425 276° West 353 406 15,900 1,740 Climbing New York Center
07:23PM 39.9192 -76.2547 279° West 353 406 17,600 1,380 Climbing New York Center
07:24PM 39.9400 -76.3917 281° West 353 406 18,700 1,140 Climbing New York Center
07:25PM 39.9531 -76.5067 278° West 358 412 20,000 1,380 Climbing New York Center
07:26PM 39.9697 -76.6353 280° West 358 412 21,600 1,440 Climbing New York Center
07:27PM 39.9847 -76.7558 279° West 353 406 22,900 1,140 Climbing New York Center
07:28PM 39.9783 -76.8797 266° West 348 400 23,900 840 Climbing New York Center
07:29PM 39.9886 -77.0028 276° West 348 400 24,700 780 Climbing New York Center
07:30PM 39.9983 -77.1311 276° West 354 407 25,500 840 Climbing New York Center
07:31PM 40.0081 -77.2592 276° West 354 407 26,400 900 Climbing New York Center
07:32PM 40.0217 -77.3881 278° West 354 407 27,400 780 Climbing New York Center
07:34PM 40.0444 -77.6678 276° West 347 399 28,800 600 Climbing Cleveland Center
07:35PM 40.0539 -77.7947 276° West 352 405 29,300 480 Climbing Cleveland Center
07:36PM 40.0633 -77.9247 275° West 357 411 29,800 300 Climbing Cleveland Center
07:37PM 40.0706 -78.0600 274° West 364 419 30,000 60 Climbing Cleveland Center
07:38PM 40.0797 -78.1953 275° West 369 425 30,000  Level Cleveland Center
07:39PM 40.0908 -78.3386 276° West 380 437 30,000  Level Cleveland Center
07:40PM 40.0978 -78.4825 274° West 394 453 30,000  Level Cleveland Center
07:41PM 40.1086 -78.6258 276° West 401 461 30,000  Level Cleveland Center
07:42PM 40.1194 -78.7694 276° West 406 467 30,000  Level Cleveland Center
07:43PM 40.1364 -78.9156 279° West 406 467 30,000  Level Cleveland Center
07:44PM 40.1778 -79.0586 291° West 412 474 30,000  Level Cleveland Center
07:45PM 40.2236 -79.2017 293° West 418 481 30,000  Level Cleveland Center
07:46PM 40.2689 -79.3422 293° West 424 488 30,000  Level Cleveland Center
07:47PM 40.3119 -79.4858 292° West 431 496 30,000  Level Cleveland Center
07:48PM 40.3531 -79.6322 290° West 431 496 30,000  Level Cleveland Center
07:49PM 40.3978 -79.7761 292° West 431 496 30,000  Level Cleveland Center
07:50PM 40.4383 -79.9203 290° West 431 496 30,000  Level Cleveland Center
07:51PM 40.4789 -80.0700 290° West 431 496 30,000  Level Cleveland Center
07:52PM 40.5231 -80.2169 292° West 426 490 30,000  Level Cleveland Center
07:53PM 40.5547 -80.3344 290° West 426 490 30,000  Level Cleveland Center
07:54PM 40.6069 -80.5119 291° West 431 496 30,000  Level Cleveland Center
07:55PM 40.6508 -80.6569 292° West 431 496 30,000  Level Cleveland Center
07:56PM 40.7006 -80.7886 297° West 431 496 30,000  Level Cleveland Center
07:57PM 40.7650 -80.9231 302° West 436 502 30,000  Level Cleveland Center
07:58PM 40.8292 -81.0633 301° West 443 510 30,000  Level Cleveland Center
07:59PM 40.8992 -81.2067 303° West 450 518 30,000 -300 Level Cleveland Center
08:00PM 40.9672 -81.3447 303° West 450 518 29,500 -900 Descending Cleveland Center
08:01PM 41.0372 -81.4861 303° West 455 524 28,300 -1,500 Descending Cleveland Center
08:02PM 41.1025 -81.6275 302° West 455 524 26,500 -1,740 Descending Cleveland Center
08:03PM 41.1700 -81.7611 304° West 450 518 24,900 -1,260 Descending Cleveland Center
08:04PM 41.2375 -81.8947 304° West 444 511 24,000 -480 Descending Cleveland Center
08:05PM 41.2983 -82.0258 302° West 432 497 24,000 -600 Level Cleveland Center
08:06PM 41.3633 -82.1683 301° West 426 490 22,900 -1,500 Descending Cleveland Center
08:07PM 41.4303 -82.2836 308° West 426 490 21,000 -2,100 Descending Cleveland Center
08:08PM 41.5014 -82.4019 309° West 426 490 18,800 -2,340 Descending Cleveland Center
08:09PM 41.5725 -82.5206 309° West 414 476 16,400 -2,340 Descending Cleveland Center
08:10PM 41.6394 -82.6336 308° West 395 455 14,200 -2,460 Descending Cleveland Center
08:10PM 41.6656 -82.6761 309° West 374 430 13,300 -2,040 Descending Cleveland Center
08:11PM 41.7019 -82.7414 307° West 370 426 12,200 -840 Descending Cleveland Center
08:12PM 41.7631 -82.8158 318° Northwest 282 325 12,000 -1,080 Descending Cleveland Center
08:13PM 41.8286 -82.8739 327° Northwest 279 321 10,200 -1,500 Descending Cleveland Center
08:14PM 41.8753 -82.9425 312° West 255 293 9,000 -840 Descending Cleveland Center
08:15PM 41.8919 -83.0433 283° West 270 311 8,600 -1,320 Descending Cleveland Center
08:16PM 41.9086 -83.1389 283° West 261 300 6,400 -1,380 Descending Cleveland Center
08:17PM 41.9086 -83.2256 270° West 253 291 6,000 -540 Descending Cleveland Center
08:18PM 41.9000 -83.3228 263° West 257 296 5,400 -960 Descending Cleveland Center
08:19PM 41.8939 -83.4033 264° West 252 290 4,100 -720 Descending Cleveland Center
08:20PM 41.8872 -83.5036 265° West 241 277 4,000 -60 Descending Cleveland Center
08:21PM 41.9258 -83.5500 318° Northwest 227 261 4,000  Level Cleveland Center
08:22PM 41.9831 -83.5081 29° Northeast 226 260 4,000  Level Cleveland Center